Time;durP1;ratioP1;P1;durP2;ratioP2;P2;SDS_P1;SDS_P2;PMS_P1;PMS_P2;Temp;Humidity;BMP_temperature;BMP_pressure;BME280_temperature;BME280_humidity;BME280_pressure;Samples;Min_cycle;Max_cycle;Signal;HPM_P1;HPM_P2
2022/10/17 00:00:42;;;;;;;2.88;2.20;;;;;;;12.82;97.02;101522.50;4956730;28;20105;-85
2022/10/17 00:03:08;;;;;;;2.50;2.30;;;;;;;12.80;96.01;101515.56;4956598;28;20519;-86
2022/10/17 00:05:38;;;;;;;2.55;2.35;;;;;;;12.80;96.53;101518.16;4955941;28;20396;-86
2022/10/17 00:08:04;;;;;;;2.10;2.00;;;;;;;12.80;96.49;101510.34;4956191;28;20545;-86
2022/10/17 00:10:29;;;;;;;2.60;2.10;;;;;;;12.79;96.07;101511.22;4956096;28;20036;-85
2022/10/17 00:12:54;;;;;;;2.53;2.20;;;;;;;12.79;96.48;101513.84;4955276;28;20055;-86
2022/10/17 00:15:20;;;;;;;2.33;2.00;;;;;;;12.80;96.57;101518.16;4956271;28;20138;-85
2022/10/17 00:17:45;;;;;;;2.30;2.10;;;;;;;12.79;96.32;101514.72;4955658;28;20066;-86
2022/10/17 00:20:11;;;;;;;2.20;1.93;;;;;;;12.79;96.88;101513.84;4956194;28;20024;-86
2022/10/17 00:22:37;;;;;;;2.13;1.92;;;;;;;12.78;96.64;101506.91;4956080;28;20027;-86
2022/10/17 00:25:02;;;;;;;2.00;1.90;;;;;;;12.78;96.95;101505.19;4955455;29;20443;-86
2022/10/17 00:27:28;;;;;;;1.90;1.80;;;;;;;12.78;96.75;101505.19;4956161;29;20487;-86
2022/10/17 00:29:53;;;;;;;1.30;1.30;;;;;;;12.78;97.07;101505.19;4956173;29;20046;-86
2022/10/17 00:32:18;;;;;;;1.47;1.37;;;;;;;12.76;97.28;101506.94;4955728;29;20066;-86
2022/10/17 00:34:44;;;;;;;1.90;1.80;;;;;;;12.74;97.26;101498.28;4956235;29;20461;-86
2022/10/17 00:37:10;;;;;;;2.20;2.00;;;;;;;12.73;97.10;101495.69;4955943;29;20369;-86
2022/10/17 00:39:35;;;;;;;2.33;2.10;;;;;;;12.73;98.34;101486.13;4955560;28;20030;-86
2022/10/17 00:42:00;;;;;;;2.30;2.10;;;;;;;12.75;97.70;101494.78;4955877;29;20074;-86
2022/10/17 00:44:28;;;;;;;2.40;2.03;;;;;;;12.74;97.81;101485.25;4956002;29;20541;-86
2022/10/17 00:46:55;;;;;;;2.15;2.03;;;;;;;12.74;98.41;101485.25;4955062;29;20031;-86
2022/10/17 00:49:23;;;;;;;2.10;1.92;;;;;;;12.72;97.84;101492.22;4955842;28;20480;-86
2022/10/17 00:51:53;;;;;;;4.75;3.17;;;;;;;12.79;97.34;101493.00;4955371;28;20034;-86
2022/10/17 00:54:21;;;;;;;3.55;2.70;;;;;;;12.76;97.61;101495.66;4955086;29;20031;-86
2022/10/17 00:56:48;;;;;;;2.47;2.28;;;;;;;12.74;98.38;101492.22;4955893;29;20435;-86
2022/10/17 00:59:15;;;;;;;3.25;2.40;;;;;;;12.75;98.79;101496.56;4955464;29;20456;-86
2022/10/17 01:01:41;;;;;;;;;;;;;;;12.75;98.60;101493.94;4955748;29;20050;-86
2022/10/17 01:04:07;;;;;;;3.05;2.50;;;;;;;12.73;98.79;101488.75;4955523;29;19914;-86
2022/10/17 01:06:32;;;;;;;2.27;2.07;;;;;;;12.74;98.71;101490.47;4955522;29;20037;-86
2022/10/17 01:08:57;;;;;;;1.90;1.80;;;;;;;12.73;99.10;101491.34;4954641;29;20055;-86
2022/10/17 01:11:28;;;;;;;1.90;1.80;;;;;;;12.74;98.92;101490.47;4955130;29;20019;-86
2022/10/17 01:14:04;;;;;;;2.17;1.98;;;;;;;12.74;98.20;101485.25;4954456;29;20094;-85
2022/10/17 01:16:44;;;;;;;2.20;2.00;;;;;;;12.76;98.86;101486.09;4955493;29;20033;-85
2022/10/17 01:19:46;;;;;;;2.30;2.10;;;;;;;12.78;98.89;101483.47;4955301;29;20031;-86
2022/10/17 01:22:18;;;;;;;3.17;2.67;;;;;;;12.80;99.17;101485.19;4938145;28;20101;-86
2022/10/17 01:25:05;;;;;;;3.83;2.55;;;;;;;12.83;98.97;101487.72;4955185;29;20031;-86
2022/10/17 01:28:01;;;;;;;2.88;2.42;;;;;;;12.85;100.00;101486.84;4955388;29;20035;-85
2022/10/17 01:30:57;;;;;;;3.30;2.60;;;;;;;12.86;100.00;101483.34;4955175;28;20372;-86
2022/10/17 01:33:46;;;;;;;2.35;2.15;;;;;;;12.87;99.63;101485.09;4955269;29;20115;-86
2022/10/17 01:36:34;;;;;;;2.70;2.50;;;;;;;12.89;100.00;101483.31;4954116;29;20078;-86
2022/10/17 01:39:14;;;;;;;2.40;2.20;;;;;;;12.92;99.72;101483.28;4952646;28;20031;-86
2022/10/17 01:41:50;;;;;;;2.70;2.42;;;;;;;12.92;100.00;101478.91;4954961;29;20030;-86
2022/10/17 01:44:39;;;;;;;3.15;2.60;;;;;;;12.94;100.00;101474.56;4954314;29;20455;-86
2022/10/17 01:47:09;;;;;;;3.03;2.58;;;;;;;12.95;100.00;101476.28;4954801;29;20035;-86
2022/10/17 01:49:38;;;;;;;3.00;2.67;;;;;;;12.95;100.00;101471.06;4953918;28;20491;-86
2022/10/17 01:52:08;;;;;;;3.40;3.00;;;;;;;12.96;100.00;101471.91;4935690;29;20380;-86
2022/10/17 01:54:51;;;;;;;3.20;2.70;;;;;;;12.96;100.00;101475.41;4936146;29;20032;-86
2022/10/17 01:57:30;;;;;;;3.20;2.70;;;;;;;12.97;100.00;101479.72;4935404;29;20031;-86
2022/10/17 01:59:56;;;;;;;3.88;2.83;;;;;;;12.99;100.00;101482.31;4935420;29;20086;-86
2022/10/17 02:02:24;;;;;;;3.15;2.50;;;;;;;12.98;100.00;101477.97;4935912;29;20039;-86
2022/10/17 02:04:51;;;;;;;2.85;2.50;;;;;;;12.99;100.00;101474.47;4935098;29;20034;-86
2022/10/17 02:07:16;;;;;;;3.08;2.30;;;;;;;12.98;100.00;101476.25;4935709;29;20105;-86
2022/10/17 02:09:42;;;;;;;2.40;2.20;;;;;;;13.00;100.00;101462.34;4935903;29;20039;-86
2022/10/17 02:12:57;;;;;;;3.30;2.57;;;;;;;12.98;100.00;101464.94;4934412;29;20046;-85
2022/10/17 02:15:32;;;;;;;4.60;2.60;;;;;;;13.01;100.00;101469.22;4894987;29;20037;-86
2022/10/17 02:18:20;;;;;;;2.90;2.42;;;;;;;13.03;100.00;101464.88;4931919;29;20061;-86
2022/10/17 02:20:55;;;;;;;3.80;2.97;;;;;;;13.01;100.00;101462.28;4954864;29;20035;-86
2022/10/17 02:23:32;;;;;;;3.67;2.80;;;;;;;13.00;100.00;101457.13;4954481;29;20114;-86
2022/10/17 02:26:22;;;;;;;3.60;2.90;;;;;;;12.99;100.00;101464.06;4953626;29;20075;-86
2022/10/17 02:29:04;;;;;;;3.38;2.85;;;;;;;13.00;100.00;101457.13;4954678;29;20031;-86
2022/10/17 02:31:39;;;;;;;5.07;3.30;;;;;;;13.01;100.00;101469.22;4954104;29;20036;-86
2022/10/17 02:34:10;;;;;;;3.83;2.90;;;;;;;13.02;100.00;101465.75;4954924;28;20027;-86
2022/10/17 02:36:40;;;;;;;4.47;2.95;;;;;;;13.02;100.00;101463.13;4958554;28;20039;-86
2022/10/17 02:39:08;;;;;;;3.97;3.08;;;;;;;13.03;100.00;101468.34;4957500;29;20126;-86
2022/10/17 02:41:36;;;;;;;3.17;2.63;;;;;;;13.02;100.00;101464.03;4958473;29;20027;-86
2022/10/17 02:44:03;;;;;;;2.78;2.50;;;;;;;13.03;100.00;101468.34;4958023;29;20440;-86
2022/10/17 02:46:31;;;;;;;3.35;2.92;;;;;;;13.03;100.00;101467.47;4957452;28;20023;-86
2022/10/17 02:49:19;;;;;;;5.10;3.20;;;;;;;13.06;100.00;101464.81;4957627;28;20074;-86
2022/10/17 02:52:08;;;;;;;5.13;3.45;;;;;;;13.08;100.00;101463.91;4957915;28;20035;-86
2022/10/17 02:54:44;;;;;;;4.32;3.47;;;;;;;13.10;100.00;101463.91;4957147;29;20067;-87
2022/10/17 02:57:46;;;;;;;5.93;3.90;;;;;;;13.13;100.00;101463.84;4957727;28;20440;-86
2022/10/17 03:00:14;;;;;;;5.15;3.63;;;;;;;13.23;100.00;101456.75;4957268;28;20058;-87
2022/10/17 03:02:44;;;;;;;5.97;4.00;;;;;;;13.29;100.00;101460.09;4958015;28;20031;-86
2022/10/17 03:05:11;;;;;;;5.72;3.90;;;;;;;13.35;100.00;101458.25;4957269;28;20034;-86
2022/10/17 03:07:37;;;;;;;6.28;4.40;;;;;;;13.40;100.00;101459.09;4953398;28;20035;-86
2022/10/17 03:10:02;;;;;;;5.23;3.87;;;;;;;13.47;100.00;101462.47;4938086;29;20389;-86
2022/10/17 03:12:28;;;;;;;5.57;3.83;;;;;;;13.46;100.00;101455.53;4937926;29;20043;-86
2022/10/17 03:14:53;;;;;;;7.13;4.27;;;;;;;13.49;100.00;101460.69;4937465;29;20046;-86
2022/10/17 03:17:18;;;;;;;5.47;3.70;;;;;;;13.50;100.00;101455.44;4938186;29;20031;-86
2022/10/17 03:19:44;;;;;;;5.47;3.90;;;;;;;13.53;100.00;101452.78;4951964;29;20020;-86
2022/10/17 03:22:09;;;;;;;3.90;3.17;;;;;;;13.54;100.00;101456.25;4956905;28;20114;-86
2022/10/17 03:24:34;;;;;;;3.97;3.20;;;;;;;13.56;100.00;101457.94;4957101;28;20082;-86
2022/10/17 03:26:59;;;;;;;4.97;3.40;;;;;;;13.57;100.00;101454.44;4957014;29;20035;-85
2022/10/17 03:29:25;;;;;;;5.47;3.80;;;;;;;13.61;100.00;101457.88;4956910;29;20412;-86
2022/10/17 03:31:50;;;;;;;3.70;3.10;;;;;;;13.65;100.00;101456.06;4957324;29;20058;-86
2022/10/17 03:34:17;;;;;;;5.20;3.60;;;;;;;13.66;100.00;101455.16;4957224;29;20041;-85
2022/10/17 03:36:43;;;;;;;5.75;3.75;;;;;;;13.67;100.00;101454.28;4956464;29;20031;-86
2022/10/17 03:39:08;;;;;;;6.90;4.10;;;;;;;13.71;100.00;101451.59;4957046;29;20388;-86
2022/10/17 03:41:34;;;;;;;6.63;4.00;;;;;;;13.73;100.00;101448.94;4956336;29;20472;-85
2022/10/17 03:43:59;;;;;;;4.87;3.60;;;;;;;13.73;100.00;101447.22;4957037;29;20030;-85
2022/10/17 03:46:25;;;;;;;6.83;4.00;;;;;;;13.72;100.00;101455.03;4956155;28;20063;-86
2022/10/17 03:48:50;;;;;;;8.33;4.60;;;;;;;13.78;100.00;101451.47;4956082;29;20020;-86
2022/10/17 03:51:15;;;;;;;6.40;4.30;;;;;;;13.78;100.00;101446.25;4956934;29;20058;-86
2022/10/17 03:53:41;;;;;;;5.50;4.10;;;;;;;13.77;100.00;101440.19;4956725;29;20058;-86
2022/10/17 03:56:13;;;;;;;5.07;3.50;;;;;;;13.81;100.00;101443.59;4956121;28;20078;-86
2022/10/17 03:58:39;;;;;;;5.05;3.30;;;;;;;13.83;100.00;101449.63;4957087;28;20063;-86
2022/10/17 04:01:07;;;;;;;4.70;3.50;;;;;;;13.84;100.00;101440.94;4956758;28;20452;-86
2022/10/17 04:03:32;;;;;;;5.45;3.75;;;;;;;13.83;100.00;101445.25;4956076;28;20019;-86
2022/10/17 04:05:59;;;;;;;6.03;4.10;;;;;;;13.85;100.00;101458.28;4956439;28;20046;-86
2022/10/17 04:08:25;;;;;;;6.97;4.30;;;;;;;13.87;100.00;101461.72;4956610;28;20394;-86
2022/10/17 04:10:50;;;;;;;5.25;3.65;;;;;;;13.88;100.00;101458.22;4955955;28;20027;-85
2022/10/17 04:13:15;;;;;;;4.23;3.40;;;;;;;13.88;100.00;101464.31;4956291;28;20047;-86
2022/10/17 04:15:41;;;;;;;4.33;3.20;;;;;;;13.92;100.00;101461.63;4956765;28;20035;-86
2022/10/17 04:18:06;;;;;;;4.00;3.20;;;;;;;13.90;100.00;101461.66;4955840;28;20051;-86
2022/10/17 04:20:33;;;;;;;3.80;3.20;;;;;;;13.93;100.00;101468.56;4956275;28;20038;-86
2022/10/17 04:22:59;;;;;;;4.60;3.30;;;;;;;13.95;100.00;101469.41;4955735;28;20125;-86
2022/10/17 04:25:24;;;;;;;4.57;3.30;;;;;;;13.96;100.00;101468.50;4955487;29;20534;-86
2022/10/17 04:27:49;;;;;;;4.10;3.10;;;;;;;13.95;100.00;101472.88;4956203;29;20031;-87
2022/10/17 04:30:15;;;;;;;5.10;3.30;;;;;;;13.98;100.00;101483.25;4956385;29;20044;-86
2022/10/17 04:32:40;;;;;;;4.00;3.17;;;;;;;13.99;100.00;101479.75;4955581;29;20380;-86
2022/10/17 04:35:06;;;;;;;4.17;3.10;;;;;;;13.98;100.00;101478.03;4955619;29;20034;-86
2022/10/17 04:37:31;;;;;;;4.70;3.33;;;;;;;14.00;100.00;101476.25;4956080;29;20396;-87
2022/10/17 04:39:56;;;;;;;4.60;2.97;;;;;;;14.00;100.00;101480.63;4955587;29;20086;-88
2022/10/17 04:42:22;;;;;;;3.73;2.90;;;;;;;14.00;100.00;101489.28;4956509;28;20045;-88
2022/10/17 04:44:47;;;;;;;4.60;3.13;;;;;;;14.02;100.00;101495.34;4956536;29;20387;-87
2022/10/17 04:47:12;;;;;;;4.93;3.10;;;;;;;14.04;100.00;101506.63;4954948;29;20035;-86
2022/10/17 04:49:37;;;;;;;6.07;3.70;;;;;;;14.07;100.00;101497.88;4955746;29;20035;-84
2022/10/17 04:52:03;;;;;;;5.03;3.47;;;;;;;14.11;100.00;101493.44;4954635;29;20428;-83
2022/10/17 04:54:28;;;;;;;6.77;4.20;;;;;;;14.12;100.00;101497.78;4955764;28;20106;-84
2022/10/17 04:56:53;;;;;;;5.80;3.90;;;;;;;14.12;100.00;101513.44;4955504;28;20035;-83
2022/10/17 04:59:18;;;;;;;5.43;3.70;;;;;;;14.12;100.00;101508.22;4956463;28;20463;-89
2022/10/17 05:01:44;;;;;;;7.20;4.20;;;;;;;14.14;100.00;101517.72;4956465;28;20038;-89
2022/10/17 05:04:09;;;;;;;6.07;3.97;;;;;;;14.13;100.00;101525.59;4956278;28;20027;-89
2022/10/17 05:06:36;;;;;;;7.30;4.50;;;;;;;14.16;100.00;101518.56;4955747;28;20039;-89
2022/10/17 05:09:02;;;;;;;8.00;4.90;;;;;;;14.18;100.00;101523.78;4956179;28;20074;-87
2022/10/17 05:11:28;;;;;;;6.57;4.43;;;;;;;14.20;100.00;101515.03;4956068;28;20472;-87
2022/10/17 05:13:59;;;;;;;5.40;4.13;;;;;;;14.23;100.00;101505.41;4954556;28;20055;-87
2022/10/17 05:16:25;;;;;;;5.72;4.15;;;;;;;14.24;100.00;101500.16;4955462;28;20075;-88
2022/10/17 05:18:52;;;;;;;;;;;;;;;14.24;100.00;101507.13;4956117;28;20027;-87
2022/10/17 05:21:17;;;;;;;;;;;;;;;14.25;100.00;101516.66;4955169;29;20378;-87
2022/10/17 05:23:43;;;;;;;6.53;4.60;;;;;;;14.24;100.00;101515.81;4955711;29;19914;-89
2022/10/17 05:26:08;;;;;;;5.90;4.10;;;;;;;14.24;100.00;101520.19;4956137;28;20027;-87
2022/10/17 05:28:33;;;;;;;6.87;4.17;;;;;;;14.23;100.00;101526.28;4955196;29;20038;-89
2022/10/17 05:31:07;;;;;;;6.23;4.23;;;;;;;14.24;100.00;101530.63;4955733;29;20023;-89
2022/10/17 05:33:32;;;;;;;6.13;4.15;;;;;;;14.24;100.00;101530.63;4955673;28;20027;-90
2022/10/17 05:35:58;;;;;;;5.33;3.70;;;;;;;14.26;100.00;101529.69;4955058;29;20030;-93
2022/10/17 05:38:23;;;;;;;4.60;3.60;;;;;;;14.28;100.00;101530.53;4955804;28;20041;-93
2022/10/17 05:40:49;;;;;;;4.80;3.40;;;;;;;14.28;100.00;101535.75;4956077;28;20495;-89
2022/10/17 05:43:14;;;;;;;5.53;3.80;;;;;;;14.31;100.00;101542.66;4955149;29;20032;-87
2022/10/17 05:45:40;;;;;;;5.20;3.73;;;;;;;14.32;100.00;101537.41;4955669;29;20023;-87
2022/10/17 05:48:05;;;;;;;4.53;3.60;;;;;;;14.33;100.00;101533.91;4954773;28;20377;-84
2022/10/17 05:50:30;;;;;;;5.23;3.60;;;;;;;14.36;100.00;101538.19;4954265;29;20027;-88
2022/10/17 05:52:56;;;;;;;6.27;4.30;;;;;;;14.38;100.00;101538.19;4955131;29;20123;-87
2022/10/17 05:55:22;;;;;;;5.27;3.80;;;;;;;14.42;100.00;101547.66;4954647;29;20110;-88
2022/10/17 05:57:47;;;;;;;7.67;4.30;;;;;;;14.42;100.00;101537.22;4955419;29;20106;-89
2022/10/17 06:00:13;;;;;;;6.03;4.00;;;;;;;14.43;100.00;101538.94;4955451;29;20024;-87
2022/10/17 06:02:39;;;;;;;7.27;4.00;;;;;;;14.45;100.00;101539.75;4954278;29;20491;-88
2022/10/17 06:05:04;;;;;;;5.90;4.20;;;;;;;14.47;100.00;101543.22;4954684;28;20302;-88
2022/10/17 06:07:30;;;;;;;5.20;3.87;;;;;;;14.49;100.00;101544.03;4954806;28;20027;-88
2022/10/17 06:09:56;;;;;;;6.00;4.20;;;;;;;14.50;100.00;101545.78;4956470;28;20042;-90
2022/10/17 06:12:22;;;;;;;;;;;;;;;14.50;100.00;101541.41;4959150;28;20027;-85
2022/10/17 06:14:47;;;;;;;6.20;3.97;;;;;;;14.50;100.00;101538.78;4958273;29;19918;-84
2022/10/17 06:17:12;;;;;;;5.87;4.10;;;;;;;14.52;100.00;101554.44;4957680;29;20019;-85
2022/10/17 06:19:40;;;;;;;4.67;3.60;;;;;;;14.54;100.00;101542.19;4958331;29;20029;-84
2022/10/17 06:22:05;;;;;;;5.75;3.72;;;;;;;14.56;100.00;101550.00;4958276;29;20069;-84
2022/10/17 06:24:30;;;;;;;6.40;3.70;;;;;;;14.58;100.00;101551.69;4957208;29;20031;-85
2022/10/17 06:26:56;;;;;;;4.80;3.57;;;;;;;14.59;100.00;101553.41;4957605;29;20020;-85
2022/10/17 06:29:22;;;;;;;4.72;3.42;;;;;;;14.61;100.00;101554.25;4958169;28;20591;-84
2022/10/17 06:31:47;;;;;;;4.50;3.60;;;;;;;14.63;100.00;101556.81;4957198;28;20118;-84
2022/10/17 06:34:12;;;;;;;5.40;3.73;;;;;;;14.65;100.00;101550.66;4957790;29;20035;-84
2022/10/17 06:36:37;;;;;;;4.00;3.30;;;;;;;14.69;100.00;101561.09;4958124;29;20029;-85
2022/10/17 06:39:03;;;;;;;6.40;4.03;;;;;;;14.69;100.00;101556.75;4956602;29;20019;-85
2022/10/17 06:41:28;;;;;;;6.77;4.10;;;;;;;14.73;100.00;101557.53;4957788;28;20062;-85
2022/10/17 06:43:53;;;;;;;4.90;3.80;;;;;;;14.77;100.00;101561.78;4957554;28;20027;-84
2022/10/17 06:46:19;;;;;;;4.53;3.40;;;;;;;14.80;100.00;101569.56;4957701;28;20476;-87
2022/10/17 06:48:44;;;;;;;5.30;3.50;;;;;;;14.81;100.00;101566.06;4957434;28;20437;-86
2022/10/17 06:51:10;;;;;;;5.07;3.70;;;;;;;14.82;100.00;101578.22;4958009;28;20024;-88
2022/10/17 06:53:38;;;;;;;4.63;3.30;;;;;;;14.82;100.00;101579.06;4957793;28;20038;-88
2022/10/17 06:56:05;;;;;;;5.07;3.60;;;;;;;14.87;100.00;101580.75;4958020;28;20023;-88
2022/10/17 06:58:33;;;;;;;6.70;3.97;;;;;;;14.90;100.00;101580.69;4957730;28;20034;-87
2022/10/17 07:01:04;;;;;;;7.18;4.22;;;;;;;14.94;100.00;101580.59;4957975;28;20094;-87
2022/10/17 07:03:29;;;;;;;5.70;4.20;;;;;;;14.98;100.00;101570.91;4957896;28;20069;-87
2022/10/17 07:05:55;;;;;;;4.70;3.67;;;;;;;15.03;100.00;101578.66;4957085;28;20100;-87
2022/10/17 07:08:21;;;;;;;6.15;3.85;;;;;;;15.07;100.00;101580.31;4958080;28;20031;-88
2022/10/17 07:10:46;;;;;;;5.20;3.80;;;;;;;15.10;100.00;101582.84;4957807;28;20101;-88
2022/10/17 07:13:12;;;;;;;4.83;3.63;;;;;;;15.12;100.00;101584.53;4956640;28;20050;-87
2022/10/17 07:15:38;;;;;;;5.83;3.97;;;;;;;15.14;100.00;101590.56;4958098;29;20031;-88
2022/10/17 07:18:04;;;;;;;5.77;3.60;;;;;;;15.17;100.00;101583.56;4957658;29;20042;-89
2022/10/17 07:20:30;;;;;;;6.28;4.13;;;;;;;15.19;100.00;101582.66;4956172;28;20150;-88
2022/10/17 07:22:55;;;;;;;6.67;4.10;;;;;;;15.23;100.00;101580.81;4957076;29;20034;-88
2022/10/17 07:25:21;;;;;;;6.10;3.70;;;;;;;15.24;100.00;101590.38;4957787;29;20028;-88
2022/10/17 07:27:51;;;;;;;5.07;3.60;;;;;;;15.24;100.00;101601.69;4956983;29;20027;-87
2022/10/17 07:30:16;;;;;;;7.70;4.38;;;;;;;15.26;100.00;101607.75;4957797;29;20035;-88
2022/10/17 07:32:42;;;;;;;6.40;4.07;;;;;;;15.28;100.00;101608.59;4957452;29;20554;-87
2022/10/17 07:35:09;;;;;;;6.75;4.30;;;;;;;15.29;100.00;101612.94;4956453;28;20031;-88
2022/10/17 07:37:34;;;;;;;6.68;4.20;;;;;;;15.32;100.00;101626.81;4957524;29;20376;-87
2022/10/17 07:40:00;;;;;;;7.87;4.70;;;;;;;15.34;100.00;101662.50;4957601;29;20028;-89
2022/10/17 07:42:27;;;;;;;6.20;4.40;;;;;;;15.36;100.00;101683.38;4956884;29;20107;-88
2022/10/17 07:44:52;;;;;;;8.00;4.60;;;;;;;15.37;100.00;101700.81;4956769;29;20388;-88
2022/10/17 07:47:17;;;;;;;6.67;4.00;;;;;;;15.36;100.00;101715.66;4957178;29;20039;-87
2022/10/17 07:49:44;;;;;;;6.17;4.40;;;;;;;15.35;100.00;101729.63;4956352;29;20058;-88
2022/10/17 07:52:10;;;;;;;6.30;4.72;;;;;;;15.37;100.00;101747.88;4957620;29;20042;-88
2022/10/17 07:54:36;;;;;;;9.85;4.88;;;;;;;15.36;100.00;101757.50;4957539;29;20118;-88
2022/10/17 07:57:01;;;;;;;11.30;5.37;;;;;;;15.40;100.00;101747.81;4956542;29;20047;-88
2022/10/17 07:59:27;;;;;;;8.60;4.60;;;;;;;15.40;100.00;101753.06;4957425;29;20048;-89
2022/10/17 08:01:58;;;;;;;6.17;4.40;;;;;;;15.41;100.00;101744.31;4956437;29;20389;-90
2022/10/17 08:04:24;;;;;;;6.90;4.30;;;;;;;15.40;100.00;101727.75;4957802;29;20098;-88
2022/10/17 08:06:49;;;;;;;5.80;4.03;;;;;;;15.40;100.00;101756.53;4957060;29;20532;-88
2022/10/17 08:09:14;;;;;;;4.83;3.70;;;;;;;15.40;100.00;101740.81;4956442;29;20392;-89
2022/10/17 08:11:42;;;;;;;6.67;4.23;;;;;;;15.41;100.00;101741.69;4957437;29;20035;-90
2022/10/17 08:14:08;;;;;;;8.50;4.07;;;;;;;15.42;100.00;101740.81;4956936;29;20504;-89
2022/10/17 08:16:34;;;;;;;7.07;3.88;;;;;;;15.43;100.00;101739.88;4955888;29;20148;-90
2022/10/17 08:18:59;;;;;;;5.80;4.03;;;;;;;15.42;100.00;101754.75;4956709;29;20060;-89
2022/10/17 08:21:25;;;;;;;5.40;3.60;;;;;;;15.42;100.00;101769.59;4957268;29;20031;-90
2022/10/17 08:23:50;;;;;;;4.00;3.30;;;;;;;15.42;100.00;101793.13;4956210;29;20035;-89
2022/10/17 08:26:16;;;;;;;4.40;3.20;;;;;;;15.42;100.00;101820.13;4957365;28;20037;-90
2022/10/17 08:28:41;;;;;;;6.37;3.90;;;;;;;15.39;100.00;101833.25;4956927;28;20035;-90
2022/10/17 08:31:17;;;;;;;5.60;4.00;;;;;;;15.39;100.00;101824.56;4956087;28;20024;-88
2022/10/17 08:33:43;;;;;;;6.07;3.65;;;;;;;15.36;100.00;101798.47;4956736;28;20038;-89
2022/10/17 08:36:11;;;;;;;4.23;3.37;;;;;;;15.35;100.00;101809.81;4956372;28;20027;-88
2022/10/17 08:38:38;;;;;;;6.38;3.78;;;;;;;15.34;100.00;101814.19;4955938;28;20019;-88
2022/10/17 08:41:19;;;;;;;6.22;4.00;;;;;;;15.34;100.00;101805.47;4956649;28;20023;-90
2022/10/17 08:43:58;;;;;;;6.25;4.25;;;;;;;15.34;100.00;101805.47;4956322;29;20126;-89
2022/10/17 08:46:34;;;;;;;6.28;3.90;;;;;;;15.33;100.00;101808.97;4956725;28;20035;-89
2022/10/17 08:49:03;;;;;;;6.65;4.30;;;;;;;15.32;100.00;101809.88;4956202;28;20098;-89
2022/10/17 08:51:32;;;;;;;7.22;4.32;;;;;;;15.32;100.00;101808.13;4956039;28;20495;-89
2022/10/17 08:54:16;;;;;;;8.50;4.20;;;;;;;15.32;100.00;101797.66;4955918;28;20039;-89
2022/10/17 08:56:44;;;;;;;7.93;3.90;;;;;;;15.33;100.00;101802.00;4956959;29;20028;-88
2022/10/17 08:59:20;;;;;;;4.63;3.33;;;;;;;15.33;100.00;101803.75;4955970;29;20067;-89
2022/10/17 09:02:16;;;;;;;4.30;3.25;;;;;;;15.33;100.00;101802.00;4955976;29;20416;-89
2022/10/17 09:04:56;;;;;;;5.68;3.28;;;;;;;15.35;100.00;101794.13;4956340;29;20031;-87
2022/10/17 09:07:31;;;;;;;3.92;3.20;;;;;;;15.35;100.00;101799.34;4955852;29;20118;-90
2022/10/17 09:10:26;;;;;;;5.23;3.17;;;;;;;15.37;100.00;101808.88;4955981;29;20039;-89
2022/10/17 09:13:18;;;;;;;3.10;2.67;;;;;;;15.38;100.00;101820.22;4950513;29;20480;-87
2022/10/17 09:15:44;;;;;;;3.35;2.80;;;;;;;15.38;100.00;101838.53;4956082;29;20046;-89
2022/10/17 09:18:26;;;;;;;5.40;3.20;;;;;;;15.37;100.00;101855.97;4955706;29;20031;-89
2022/10/17 09:20:57;;;;;;;3.65;3.13;;;;;;;15.36;100.00;101862.13;4955221;29;20503;-87
2022/10/17 09:23:35;;;;;;;3.53;2.83;;;;;;;15.36;100.00;101871.69;4951144;29;20027;-87
2022/10/17 09:26:01;;;;;;;3.70;2.85;;;;;;;15.35;100.00;101881.31;4941090;29;20035;-86
2022/10/17 09:28:31;;;;;;;5.43;3.20;;;;;;;15.35;100.00;101860.38;4953890;29;20380;-87
2022/10/17 09:31:01;;;;;;;4.78;3.47;;;;;;;15.34;100.00;101839.47;4954698;28;20031;-86
2022/10/17 09:33:45;;;;;;;5.53;3.53;;;;;;;15.33;100.00;101795.91;4954146;28;20041;-85
2022/10/17 09:36:15;;;;;;;5.93;4.03;;;;;;;15.33;100.00;101774.97;4954798;28;20023;-86
2022/10/17 09:38:47;;;;;;;4.97;3.65;;;;;;;15.38;100.00;101762.69;4953722;28;20493;-86
2022/10/17 09:41:22;;;;;;;4.45;3.47;;;;;;;15.39;100.00;101783.56;4942122;28;20023;-85
2022/10/17 09:43:47;;;;;;;6.32;3.60;;;;;;;15.43;100.00;101795.69;4953245;28;20031;-85
2022/10/17 09:46:26;;;;;;;3.47;3.00;;;;;;;15.46;100.00;101810.47;4954038;29;20038;-86
2022/10/17 09:49:10;;;;;;;4.13;3.10;;;;;;;15.48;100.00;101836.63;4943720;28;20031;-86
2022/10/17 09:51:37;;;;;;;4.18;3.13;;;;;;;15.47;100.00;101835.72;4935352;29;20043;-86
2022/10/17 09:54:11;;;;;;;3.85;3.10;;;;;;;15.49;100.00;101846.16;4943004;29;20031;-86
2022/10/17 09:57:00;;;;;;;4.45;3.22;;;;;;;15.49;100.00;101827.84;4953830;28;20404;-86
2022/10/17 09:59:35;;;;;;;4.28;2.90;;;;;;;15.49;100.00;101823.50;4953516;29;20027;-85
2022/10/17 10:02:11;;;;;;;4.75;3.38;;;;;;;15.53;100.00;101811.19;4952551;28;20023;-85
2022/10/17 10:04:57;;;;;;;5.80;3.42;;;;;;;15.56;100.00;101808.53;4954377;29;20027;-86
2022/10/17 10:07:24;;;;;;;4.18;3.25;;;;;;;15.59;100.00;101803.25;4954674;29;20349;-86
2022/10/17 10:09:50;;;;;;;3.60;2.60;;;;;;;15.64;100.00;101813.59;4953916;29;20024;-86
2022/10/17 10:12:26;;;;;;;3.53;2.35;;;;;;;15.67;100.00;101818.75;4955870;29;20043;-88
2022/10/17 10:14:51;;;;;;;2.60;2.40;;;;;;;15.68;100.00;101826.59;4954482;29;20575;-87
2022/10/17 10:17:32;;;;;;;2.33;2.13;;;;;;;15.70;100.00;101840.50;4954307;29;20111;-87
2022/10/17 10:19:58;;;;;;;2.75;2.00;;;;;;;15.71;100.00;101844.81;4954313;29;20031;-87
2022/10/17 10:22:24;;;;;;;1.87;1.77;;;;;;;15.73;100.00;101836.97;4954739;28;20050;-87
2022/10/17 10:25:16;;;;;;;1.73;1.63;;;;;;;15.75;100.00;101848.25;4954006;29;20354;-86
2022/10/17 10:27:45;;;;;;;2.00;1.90;;;;;;;15.78;100.00;101863.88;4954453;29;20101;-87
2022/10/17 10:30:29;;;;;;;4.30;2.83;;;;;;;15.81;100.00;101869.06;4954004;28;20039;-87
2022/10/17 10:32:57;;;;;;;4.82;3.22;;;;;;;15.82;100.00;101878.63;4954380;28;20042;-87
2022/10/17 10:35:31;;;;;;;4.95;3.10;;;;;;;15.83;100.00;101882.09;4954882;28;20051;-86
2022/10/17 10:37:58;;;;;;;3.33;2.80;;;;;;;15.84;100.00;101884.75;4953362;28;20477;-86
2022/10/17 10:40:31;;;;;;;5.07;3.10;;;;;;;15.85;100.00;101881.25;4954788;28;20042;-87
2022/10/17 10:42:58;;;;;;;3.25;2.65;;;;;;;15.87;100.00;101894.28;4954429;28;20042;-87
2022/10/17 10:45:48;;;;;;;3.55;2.67;;;;;;;15.89;100.00;101910.81;4954217;28;20389;-87
2022/10/17 10:48:35;;;;;;;4.00;3.10;;;;;;;15.91;100.00;101922.13;4953624;29;20049;-86
2022/10/17 10:51:11;;;;;;;2.83;2.50;;;;;;;15.91;100.00;101924.75;4953522;28;20090;-86
2022/10/17 10:53:46;;;;;;;2.72;2.53;;;;;;;15.92;100.00;101925.59;4954614;28;20388;-87
2022/10/17 10:56:27;;;;;;;3.28;2.70;;;;;;;15.89;100.00;101929.16;4956461;28;20065;-86
2022/10/17 10:59:10;;;;;;;4.28;3.10;;;;;;;15.88;100.00;101936.13;4956836;28;20034;-86
2022/10/17 11:01:44;;;;;;;4.63;3.13;;;;;;;15.86;100.00;101927.47;4957884;28;20559;-87
2022/10/17 11:04:18;;;;;;;4.75;3.00;;;;;;;15.86;100.00;101926.59;4957701;28;20115;-87
2022/10/17 11:06:46;;;;;;;2.65;2.45;;;;;;;15.86;100.00;101931.81;4957421;28;20023;-88
2022/10/17 11:09:39;;;;;;;3.10;2.38;;;;;;;15.87;100.00;101941.41;4949489;29;20035;-88
2022/10/17 11:12:13;;;;;;;2.60;2.30;;;;;;;15.87;100.00;101939.66;4957972;29;20063;-89
2022/10/17 11:15:00;;;;;;;3.15;2.55;;;;;;;15.88;100.00;101938.75;4958139;29;20059;-89
2022/10/17 11:17:33;;;;;;;2.55;2.35;;;;;;;15.92;100.00;101949.16;4958023;29;20051;-89
2022/10/17 11:20:07;;;;;;;3.03;1.90;;;;;;;15.94;100.00;101945.59;4957767;29;20028;-90
2022/10/17 11:22:39;;;;;;;2.30;2.00;;;;;;;15.96;100.00;101953.44;4958273;29;20051;-91
2022/10/17 11:25:11;;;;;;;2.17;1.98;;;;;;;15.96;100.00;101959.53;4958233;28;20046;-92
2022/10/17 11:27:37;;;;;;;1.80;1.70;;;;;;;15.96;100.00;101964.78;4958586;28;20038;-93
2022/10/17 11:30:04;;;;;;;1.70;1.60;;;;;;;15.98;100.00;101967.38;4958506;28;20484;-93
2022/10/17 11:32:36;;;;;;;1.80;1.70;;;;;;;15.99;100.00;101971.69;4957860;28;20038;-92